Time,TemperatureF,DewpointF,PressureIn,WindDirection,WindDirectionDegrees,WindSpeedMPH,WindSpeedGustMPH,Humidity,HourlyPrecipIn,Conditions,Clouds,dailyrainin,SolarRadiationWatts/m^2,SoftwareType,DateUTC
2013-02-13 00:01:00,48.0,46.0,30.47,West,260,9.0,15.0,92,-99.99,,,0.01,0.000000,,2013-02-13 08:01:00,
2013-02-13 00:11:00,48.0,46.0,30.47,West,260,9.0,15.0,92,-99.99,,,0.01,0.000000,,2013-02-13 08:11:00,
2013-02-13 00:43:00,48.0,45.0,30.47,WSW,258,8.0,13.0,92,-99.99,,,0.01,0.000000,,2013-02-13 08:43:00,
2013-02-13 00:52:00,48.0,45.0,30.47,WSW,258,8.0,13.0,92,-99.99,,,0.01,0.000000,,2013-02-13 08:52:00,
2013-02-13 01:01:00,48.0,45.0,30.47,WSW,258,8.0,13.0,92,-99.99,,,0.01,0.000000,,2013-02-13 09:01:00,
2013-02-13 01:11:00,48.0,45.0,30.47,WSW,258,8.0,13.0,92,-99.99,,,0.01,0.000000,,2013-02-13 09:11:00,
2013-02-13 01:41:00,47.0,45.0,30.45,West,259,10.0,18.0,94,-99.99,,,0.01,0.000000,,2013-02-13 09:41:00,
2013-02-13 01:52:00,47.0,45.0,30.45,West,259,10.0,18.0,94,-99.99,,,0.01,0.000000,,2013-02-13 09:52:00,
2013-02-13 02:01:00,47.0,45.0,30.45,West,259,10.0,18.0,94,-99.99,,,0.01,0.000000,,2013-02-13 10:01:00,
2013-02-13 02:11:00,47.0,45.0,30.45,West,259,10.0,18.0,94,-99.99,,,0.01,0.000000,,2013-02-13 10:11:00,
2013-02-13 02:41:00,48.0,45.0,30.46,West,269,10.0,21.0,89,-99.99,,,0.01,0.000000,,2013-02-13 10:41:00,
2013-02-13 02:52:00,48.0,45.0,30.46,West,269,10.0,21.0,89,-99.99,,,0.01,0.000000,,2013-02-13 10:52:00,
2013-02-13 03:01:00,48.0,45.0,30.46,West,269,10.0,21.0,89,-99.99,,,0.01,0.000000,,2013-02-13 11:01:00,
2013-02-13 03:11:00,48.0,45.0,30.46,West,269,10.0,21.0,89,-99.99,,,0.01,0.000000,,2013-02-13 11:11:00,
2013-02-13 03:42:00,47.0,45.0,30.45,West,271,12.0,22.0,92,-99.99,,,0.01,0.000000,,2013-02-13 11:42:00,
2013-02-13 03:52:00,47.0,45.0,30.45,West,271,12.0,22.0,92,-99.99,,,0.01,0.000000,,2013-02-13 11:52:00,
2013-02-13 04:02:00,47.0,45.0,30.45,West,271,12.0,22.0,92,-99.99,,,0.01,0.000000,,2013-02-13 12:02:00,
2013-02-13 04:11:00,47.0,45.0,30.45,West,271,12.0,22.0,92,-99.99,,,0.01,0.000000,,2013-02-13 12:11:00,
2013-02-13 04:42:00,47.0,45.0,30.45,West,261,10.0,17.0,92,-99.99,,,-99.99,0.000000,,2013-02-13 12:42:00,
2013-02-13 04:52:00,47.0,45.0,30.45,West,261,10.0,17.0,92,-99.99,,,-99.99,0.000000,,2013-02-13 12:52:00,
2013-02-13 05:02:00,47.0,45.0,30.45,West,261,10.0,17.0,92,-99.99,,,-99.99,0.000000,,2013-02-13 13:02:00,
2013-02-13 05:11:00,47.0,45.0,30.45,West,261,10.0,17.0,92,-99.99,,,-99.99,0.000000,,2013-02-13 13:11:00,
2013-02-13 05:41:00,47.0,44.0,30.44,West,270,10.0,17.0,89,-99.99,,,0.01,0.000000,,2013-02-13 13:41:00,
2013-02-13 05:52:00,47.0,44.0,30.44,West,270,10.0,17.0,89,-99.99,,,0.01,0.000000,,2013-02-13 13:52:00,
2013-02-13 06:01:00,47.0,44.0,30.44,West,270,10.0,17.0,89,-99.99,,,0.01,0.000000,,2013-02-13 14:01:00,
2013-02-13 06:11:00,47.0,44.0,30.44,West,270,10.0,17.0,89,-99.99,,,0.01,0.000000,,2013-02-13 14:11:00,
2013-02-13 06:41:00,47.0,44.0,30.44,West,263,10.0,18.0,88,-99.99,,,-99.99,0.000000,,2013-02-13 14:41:00,
2013-02-13 06:52:00,47.0,44.0,30.44,West,263,10.0,18.0,88,-99.99,,,-99.99,0.000000,,2013-02-13 14:52:00,
2013-02-13 07:01:00,47.0,44.0,30.44,West,263,10.0,18.0,88,-99.99,,,-99.99,0.000000,,2013-02-13 15:01:00,
2013-02-13 07:11:00,47.0,44.0,30.44,West,263,10.0,18.0,88,-99.99,,,-99.99,0.000000,,2013-02-13 15:11:00,
2013-02-13 07:42:00,47.0,44.0,30.45,West,273,11.0,17.0,88,-99.99,,,0.01,1.050000,,2013-02-13 15:42:00,
2013-02-13 07:52:00,47.0,44.0,30.45,West,273,11.0,17.0,88,-99.99,,,0.01,1.050000,,2013-02-13 15:52:00,
2013-02-13 08:01:00,47.0,44.0,30.45,West,273,11.0,17.0,88,-99.99,,,0.01,1.050000,,2013-02-13 16:01:00,
2013-02-13 08:11:00,47.0,44.0,30.45,West,273,11.0,17.0,88,-99.99,,,0.01,1.050000,,2013-02-13 16:11:00,
2013-02-13 08:41:00,47.0,45.0,30.46,West,268,11.0,18.0,91,-99.99,,,0.00,73.800003,,2013-02-13 16:41:00,
2013-02-13 08:52:00,47.0,45.0,30.46,West,268,11.0,18.0,91,-99.99,,,0.00,73.800003,,2013-02-13 16:52:00,
2013-02-13 09:01:00,47.0,45.0,30.46,West,268,11.0,18.0,91,-99.99,,,0.00,73.800003,,2013-02-13 17:01:00,
2013-02-13 09:11:00,47.0,45.0,30.46,West,268,11.0,18.0,91,-99.99,,,0.00,73.800003,,2013-02-13 17:11:00,
2013-02-13 09:41:00,49.0,45.0,30.47,West,266,8.0,15.0,86,-99.99,,,0.00,175.720001,,2013-02-13 17:41:00,
2013-02-13 09:52:00,49.0,45.0,30.47,West,266,8.0,15.0,86,-99.99,,,0.00,175.720001,,2013-02-13 17:52:00,
2013-02-13 10:01:00,49.0,45.0,30.47,West,266,8.0,15.0,86,-99.99,,,0.00,175.720001,,2013-02-13 18:01:00,
2013-02-13 10:11:00,49.0,45.0,30.47,West,266,8.0,15.0,86,-99.99,,,0.00,175.720001,,2013-02-13 18:11:00,
2013-02-13 10:41:00,48.0,46.0,30.49,West,270,7.0,13.0,92,-99.99,,,0.00,124.360001,,2013-02-13 18:41:00,
2013-02-13 10:52:00,48.0,46.0,30.49,West,270,7.0,13.0,92,-99.99,,,0.00,124.360001,,2013-02-13 18:52:00,
2013-02-13 11:01:00,48.0,46.0,30.49,West,270,7.0,13.0,92,-99.99,,,0.00,124.360001,,2013-02-13 19:01:00,
2013-02-13 11:11:00,48.0,46.0,30.49,West,270,7.0,13.0,92,-99.99,,,0.00,124.360001,,2013-02-13 19:11:00,
2013-02-13 11:41:00,49.0,46.0,30.50,WSW,258,10.0,17.0,90,-99.99,,,0.00,158.289993,,2013-02-13 19:41:00,
2013-02-13 11:52:00,49.0,46.0,30.50,WSW,258,10.0,17.0,90,-99.99,,,0.00,158.289993,,2013-02-13 19:52:00,
2013-02-13 12:02:00,49.0,46.0,30.50,WSW,258,10.0,17.0,90,-99.99,,,0.00,158.289993,,2013-02-13 20:02:00,
2013-02-13 12:11:00,49.0,46.0,30.50,WSW,258,10.0,17.0,90,-99.99,,,0.00,158.289993,,2013-02-13 20:11:00,
2013-02-13 12:41:00,49.0,45.0,30.49,WSW,255,9.0,19.0,88,-99.99,,,0.00,250.690002,,2013-02-13 20:41:00,
2013-02-13 12:52:00,49.0,45.0,30.49,WSW,255,9.0,19.0,88,-99.99,,,0.00,250.690002,,2013-02-13 20:52:00,
2013-02-13 13:01:00,49.0,45.0,30.49,WSW,255,9.0,19.0,88,-99.99,,,0.00,250.690002,,2013-02-13 21:01:00,
2013-02-13 13:11:00,49.0,45.0,30.49,WSW,255,9.0,19.0,88,-99.99,,,0.00,250.690002,,2013-02-13 21:11:00,
2013-02-13 13:42:00,49.0,44.0,30.49,WSW,256,8.0,16.0,82,-99.99,,,0.00,300.079987,,2013-02-13 21:42:00,
2013-02-13 13:52:00,49.0,44.0,30.49,WSW,256,8.0,16.0,82,-99.99,,,0.00,300.079987,,2013-02-13 21:52:00,
2013-02-13 14:02:00,49.0,44.0,30.49,WSW,256,8.0,16.0,82,-99.99,,,0.00,300.079987,,2013-02-13 22:02:00,
2013-02-13 14:11:00,49.0,44.0,30.49,WSW,256,8.0,16.0,82,-99.99,,,0.00,300.079987,,2013-02-13 22:11:00,
2013-02-13 14:42:00,49.0,44.0,30.48,West,270,7.0,15.0,81,-99.99,,,0.00,122.379997,,2013-02-13 22:42:00,
2013-02-13 14:52:00,49.0,44.0,30.48,West,270,7.0,15.0,81,-99.99,,,0.00,122.379997,,2013-02-13 22:52:00,
2013-02-13 15:01:00,49.0,44.0,30.48,West,270,7.0,15.0,81,-99.99,,,0.00,122.379997,,2013-02-13 23:01:00,
2013-02-13 15:11:00,49.0,44.0,30.48,West,270,7.0,15.0,81,-99.99,,,0.00,122.379997,,2013-02-13 23:11:00,
2013-02-13 15:41:00,49.0,43.0,30.48,West,268,7.0,13.0,78,-99.99,,,0.00,64.500000,,2013-02-13 23:41:00,
2013-02-13 15:52:00,49.0,43.0,30.48,West,268,7.0,13.0,78,-99.99,,,0.00,64.500000,,2013-02-13 23:52:00,
2013-02-13 16:01:00,49.0,43.0,30.48,West,268,7.0,13.0,78,-99.99,,,0.00,64.500000,,2013-02-14 00:01:00,
2013-02-13 16:11:00,49.0,43.0,30.48,West,268,7.0,13.0,78,-99.99,,,0.00,64.500000,,2013-02-14 00:11:00,
2013-02-13 16:42:00,49.0,44.0,30.49,WNW,288,5.0,8.0,81,-99.99,,,0.00,81.239998,,2013-02-14 00:42:00,
2013-02-13 16:52:00,49.0,44.0,30.49,WNW,288,5.0,8.0,81,-99.99,,,0.00,81.239998,,2013-02-14 00:52:00,
2013-02-13 17:01:00,49.0,44.0,30.49,WNW,288,5.0,8.0,81,-99.99,,,0.00,81.239998,,2013-02-14 01:01:00,
2013-02-13 17:11:00,49.0,44.0,30.49,WNW,288,5.0,8.0,81,-99.99,,,0.00,81.239998,,2013-02-14 01:11:00,
2013-02-13 19:02:00,48.0,43.0,30.51,West,271,6.0,8.0,82,-99.99,,,0.00,0.000000,,2013-02-14 03:02:00,
2013-02-13 19:11:00,48.0,43.0,30.51,West,271,6.0,8.0,82,-99.99,,,0.00,0.000000,,2013-02-14 03:11:00,
2013-02-13 19:42:00,48.0,42.0,30.52,WNW,293,3.0,6.0,80,-99.99,,,0.00,0.000000,,2013-02-14 03:42:00,
2013-02-13 19:52:00,48.0,42.0,30.52,WNW,293,3.0,6.0,80,-99.99,,,0.00,0.000000,,2013-02-14 03:52:00,
2013-02-13 20:01:00,48.0,42.0,30.52,WNW,293,3.0,6.0,80,-99.99,,,0.00,0.000000,,2013-02-14 04:01:00,
2013-02-13 20:11:00,48.0,42.0,30.52,WNW,293,3.0,6.0,80,-99.99,,,0.00,0.000000,,2013-02-14 04:11:00,
2013-02-13 20:41:00,45.0,42.0,30.52,NE,39,1.0,2.0,87,-99.99,,,0.00,0.000000,,2013-02-14 04:41:00,
2013-02-13 20:52:00,45.0,42.0,30.52,NE,39,1.0,2.0,87,-99.99,,,0.00,0.000000,,2013-02-14 04:52:00,
2013-02-13 21:01:00,45.0,42.0,30.52,NE,39,1.0,2.0,87,-99.99,,,0.00,0.000000,,2013-02-14 05:01:00,
2013-02-13 21:11:00,45.0,42.0,30.52,NE,39,1.0,2.0,87,-99.99,,,0.00,0.000000,,2013-02-14 05:11:00,
2013-02-13 21:41:00,46.0,41.0,30.55,NNW,344,0.0,1.0,85,-99.99,,,0.00,0.000000,,2013-02-14 05:41:00,
2013-02-13 21:52:00,46.0,41.0,30.55,NNW,344,0.0,1.0,85,-99.99,,,0.00,0.000000,,2013-02-14 05:52:00,
2013-02-13 22:01:00,46.0,41.0,30.55,NNW,344,0.0,1.0,85,-99.99,,,0.00,0.000000,,2013-02-14 06:01:00,
2013-02-13 22:11:00,46.0,41.0,30.55,NNW,344,0.0,1.0,85,-99.99,,,0.00,0.000000,,2013-02-14 06:11:00,
2013-02-13 22:41:00,44.0,41.0,30.56,NW,306,1.0,2.0,87,-99.99,,,0.00,0.000000,,2013-02-14 06:41:00,
2013-02-13 22:52:00,44.0,41.0,30.56,NW,306,1.0,2.0,87,-99.99,,,0.00,0.000000,,2013-02-14 06:52:00,
2013-02-13 23:01:00,44.0,41.0,30.56,NW,306,1.0,2.0,87,-99.99,,,0.00,0.000000,,2013-02-14 07:01:00,
2013-02-13 23:11:00,44.0,41.0,30.56,NW,306,1.0,2.0,87,-99.99,,,0.00,0.000000,,2013-02-14 07:11:00,
2013-02-13 23:41:00,42.0,40.0,30.56,NW,315,2.0,6.0,92,-99.99,,,0.00,0.000000,,2013-02-14 07:41:00,
2013-02-13 23:52:00,42.0,40.0,30.56,NW,315,2.0,6.0,92,-99.99,,,0.00,0.000000,,2013-02-14 07:52:00,